Weather Data

Pearl Creek Farm: 8878 N Farm Road 75, Walnut Grove MO 65770

<== Previous Day (Tuesday 19 Aug 2008) | Next Day (Thursday 21 Aug 2008) ==>

Summary Precipitation Data For Wednesday 20 August 2008

ElementValueUnits
Precipitation0.16"
Notes(none)
SourceSpringfield-Branson National Airport (SGF)

Summary Temperature Data For Wednesday 20 August 2008

ElementValueUnits
High Temperature73 oF
Low Temperature67 oF
Average Temperature69 oF
High Humidity97 %
Low Humidity64 %
Average Humidity85 %
SourceSpringfield-Branson National Airport (SGF)

Detail Temperature Data For Wednesday 20 August 2008

Date / TimeTemp (F)RH (%)Dew Pt (F)Report Date / TimeSource
2008-08-20 03:52:00 70 76 62.0 2017-12-29 19:14:24.89625 Springfield-Branson National Airport (SGF)
2008-08-20 04:52:00 67 93 65.0 2017-12-29 19:14:24.89625 Springfield-Branson National Airport (SGF)
2008-08-20 05:52:00 68 87 64.0 2017-12-29 19:14:24.89625 Springfield-Branson National Airport (SGF)
2008-08-20 06:52:00 68 87 64.0 2017-12-29 19:14:24.89625 Springfield-Branson National Airport (SGF)
2008-08-20 07:52:00 67 91 64.0 2017-12-29 19:14:24.89625 Springfield-Branson National Airport (SGF)
2008-08-20 08:52:00 68 90 65.0 2017-12-29 19:14:24.89625 Springfield-Branson National Airport (SGF)
2008-08-20 09:52:00 69 90 66.0 2017-12-29 19:14:24.89625 Springfield-Branson National Airport (SGF)
2008-08-20 10:52:00 70 90 67.0 2017-12-29 19:14:24.89625 Springfield-Branson National Airport (SGF)
2008-08-20 11:52:00 72 82 66.0 2017-12-29 19:14:24.89625 Springfield-Branson National Airport (SGF)
2008-08-20 15:52:00 68 90 65.0 2017-12-29 19:14:24.89625 Springfield-Branson National Airport (SGF)
2008-08-20 18:52:00 67 93 65.0 2017-12-29 19:14:24.89625 Springfield-Branson National Airport (SGF)
2008-08-20 19:52:00 67 93 65.0 2017-12-29 19:14:24.89625 Springfield-Branson National Airport (SGF)
2008-08-20 20:52:00 67 97 66.0 2017-12-29 19:14:24.89625 Springfield-Branson National Airport (SGF)
2008-08-20 21:52:00 67 93 65.0 2017-12-29 19:14:24.89625 Springfield-Branson National Airport (SGF)
2008-08-20 22:52:00 67 93 65.0 2017-12-29 19:14:24.89625 Springfield-Branson National Airport (SGF)
2008-08-20 23:52:00 67 97 66.0 2017-12-29 19:14:24.89625 Springfield-Branson National Airport (SGF)
2008-08-20 00:52:00 72 64 59.0 2017-12-29 19:14:24.89625 Springfield-Branson National Airport (SGF)
2008-08-20 01:52:00 72 64 59.0 2017-12-29 19:14:24.89625 Springfield-Branson National Airport (SGF)
2008-08-20 02:52:00 71 66 59.0 2017-12-29 19:14:24.89625 Springfield-Branson National Airport (SGF)
2008-08-20 12:52:00 73 76 65.0 2017-12-29 19:14:24.89625 Springfield-Branson National Airport (SGF)
2008-08-20 13:52:00 73 71 63.0 2017-12-29 19:14:24.89625 Springfield-Branson National Airport (SGF)
2008-08-20 14:52:00 70 79 63.0 2017-12-29 19:14:24.89625 Springfield-Branson National Airport (SGF)
2008-08-20 16:52:00 68 87 64.0 2017-12-29 19:14:24.89625 Springfield-Branson National Airport (SGF)
2008-08-20 17:52:00 68 87 64.0 2017-12-29 19:14:24.89625 Springfield-Branson National Airport (SGF)

A total of 24 rows are displayed.